createdAt,value
2022-12-24T00:01:38.876Z,12.92
2022-12-24T00:04:07.680Z,12.96
2022-12-24T00:06:36.105Z,13.01
2022-12-24T00:09:05.669Z,13.06
2022-12-24T00:11:34.301Z,13.16
2022-12-24T00:14:03.078Z,13.29
2022-12-24T00:16:31.754Z,13.44
2022-12-24T00:19:01.545Z,13.61
2022-12-24T00:21:29.987Z,13.79
2022-12-24T00:23:58.393Z,13.94
2022-12-24T00:26:26.851Z,14.08
2022-12-24T00:28:55.271Z,14.18
2022-12-24T00:31:23.837Z,14.27
2022-12-24T00:33:52.655Z,14.34
2022-12-24T00:36:22.890Z,14.39
2022-12-24T00:38:51.398Z,14.43
2022-12-24T00:41:26.036Z,14.48
2022-12-24T00:43:56.636Z,14.51
2022-12-24T00:46:26.388Z,14.54
2022-12-24T00:48:55.436Z,14.59
2022-12-24T00:51:26.177Z,14.62
2022-12-24T00:53:55.097Z,14.68
2022-12-24T00:56:23.988Z,14.73
2022-12-24T00:58:52.739Z,14.78
2022-12-24T01:01:22.017Z,14.86
2022-12-24T01:03:51.359Z,14.93
2022-12-24T01:06:22.955Z,14.98
2022-12-24T01:08:52.877Z,15.04
2022-12-24T01:11:21.468Z,15.11
2022-12-24T01:13:49.864Z,15.18
2022-12-24T01:16:21.380Z,15.23
2022-12-24T01:18:49.941Z,15.26
2022-12-24T01:21:18.640Z,15.25
2022-12-24T01:23:48.465Z,15.25
2022-12-24T01:26:16.928Z,15.25
2022-12-24T01:28:45.414Z,15.23
2022-12-24T01:31:15.842Z,15.22
2022-12-24T01:33:45.151Z,15.22
2022-12-24T01:36:14.286Z,15.22
2022-12-24T01:38:42.986Z,15.24
2022-12-24T01:41:36.374Z,15.26
2022-12-24T01:44:26.173Z,15.27
2022-12-24T01:47:05.034Z,15.33
2022-12-24T01:49:33.831Z,15.39
2022-12-24T01:52:07.800Z,15.45
2022-12-24T01:54:42.503Z,15.51
2022-12-24T01:57:19.396Z,15.56
2022-12-24T01:59:53.018Z,15.59
2022-12-24T02:02:22.707Z,15.65
2022-12-24T02:04:59.128Z,15.68
2022-12-24T02:07:28.205Z,15.73
2022-12-24T02:10:01.368Z,15.74
2022-12-24T02:12:35.277Z,15.75
2022-12-24T02:15:04.463Z,15.79
2022-12-24T02:17:40.990Z,15.78
2022-12-24T02:20:43.085Z,15.76
2022-12-24T02:23:56.604Z,15.73
2022-12-24T02:26:49.723Z,15.71
2022-12-24T02:29:59.496Z,15.67
2022-12-24T02:32:49.593Z,15.65
2022-12-24T02:35:22.987Z,15.65
2022-12-24T02:37:58.309Z,15.63
2022-12-24T02:40:32.934Z,15.64
2022-12-24T02:43:09.226Z,15.63
2022-12-24T02:45:41.941Z,15.64
2022-12-24T02:48:14.878Z,15.64
2022-12-24T02:50:57.434Z,15.63
2022-12-24T02:53:25.938Z,15.65
2022-12-24T02:56:20.996Z,15.63
2022-12-24T02:59:10.843Z,15.64
2022-12-24T03:01:56.250Z,15.64
2022-12-24T03:04:41.566Z,15.65
2022-12-24T03:07:21.778Z,15.65
2022-12-24T03:10:03.572Z,15.65
2022-12-24T03:12:39.245Z,15.68
2022-12-24T03:15:11.283Z,15.69
2022-12-24T03:17:42.991Z,15.69
2022-12-24T03:20:16.127Z,15.71
2022-12-24T03:22:44.606Z,15.74
2022-12-24T03:25:13.049Z,15.76
2022-12-24T03:27:42.093Z,15.79
2022-12-24T03:30:15.629Z,15.81
2022-12-24T03:32:44.039Z,15.83
2022-12-24T03:35:14.455Z,15.86
2022-12-24T03:37:42.831Z,15.89
2022-12-24T03:40:12.413Z,15.90
2022-12-24T03:42:40.959Z,15.93
2022-12-24T03:45:10.818Z,15.93
2022-12-24T03:47:39.251Z,15.92
2022-12-24T03:50:09.508Z,15.93
2022-12-24T03:52:39.295Z,15.93
2022-12-24T03:55:08.718Z,15.92
2022-12-24T03:57:37.129Z,15.93
2022-12-24T04:00:07.356Z,15.94
2022-12-24T04:02:36.461Z,15.94
2022-12-24T04:05:05.654Z,15.93
2022-12-24T04:07:34.305Z,15.94
2022-12-24T04:10:04.204Z,15.93
2022-12-24T04:12:32.666Z,15.94
2022-12-24T04:15:01.091Z,15.96
2022-12-24T04:17:29.528Z,15.97
2022-12-24T04:19:57.922Z,15.97
2022-12-24T04:22:26.769Z,15.97
2022-12-24T04:24:55.174Z,15.97
2022-12-24T04:27:30.131Z,15.98
2022-12-24T04:29:59.128Z,15.97
2022-12-24T04:32:27.686Z,15.98
2022-12-24T04:34:56.113Z,15.98
2022-12-24T04:37:24.736Z,16.00
2022-12-24T04:39:53.083Z,16.01
2022-12-24T04:42:21.468Z,16.01
2022-12-24T04:44:51.212Z,16.01
2022-12-24T04:47:19.581Z,16.01
2022-12-24T04:49:47.990Z,16.00
2022-12-24T04:52:16.598Z,15.99
2022-12-24T04:54:45.009Z,15.97
2022-12-24T04:57:13.374Z,15.95
2022-12-24T04:59:41.780Z,15.94
2022-12-24T05:02:11.735Z,15.93
2022-12-24T05:04:40.492Z,15.91
2022-12-24T05:07:08.886Z,15.91
2022-12-24T05:09:37.349Z,15.89
2022-12-24T05:12:06.566Z,15.88
2022-12-24T05:14:34.987Z,15.85
2022-12-24T05:17:03.446Z,15.84
2022-12-24T05:19:33.785Z,15.83
2022-12-24T05:22:19.654Z,15.83
2022-12-24T05:25:05.505Z,15.80
2022-12-24T05:27:33.991Z,15.79
2022-12-24T05:30:02.373Z,15.80
2022-12-24T05:32:30.776Z,15.78
2022-12-24T05:35:00.544Z,15.79
2022-12-24T05:37:28.962Z,15.79
2022-12-24T05:39:57.328Z,15.79
2022-12-24T05:42:25.735Z,15.79
2022-12-24T05:44:54.379Z,15.77
2022-12-24T05:47:22.760Z,15.78
2022-12-24T05:49:51.144Z,15.77
2022-12-24T05:52:21.001Z,15.77
2022-12-24T05:54:49.506Z,15.79
2022-12-24T05:57:18.183Z,15.80
2022-12-24T05:59:46.614Z,15.81
2022-12-24T06:02:15.127Z,15.81
2022-12-24T06:04:43.753Z,15.82
2022-12-24T06:07:12.359Z,15.84
2022-12-24T06:09:42.291Z,15.85
2022-12-24T06:12:10.721Z,15.88
2022-12-24T06:14:39.110Z,15.90
2022-12-24T06:17:07.494Z,15.91
2022-12-24T06:19:35.901Z,15.91
2022-12-24T06:22:04.490Z,15.91
2022-12-24T06:24:32.880Z,15.90
2022-12-24T06:27:02.706Z,15.86
2022-12-24T06:29:31.104Z,15.85
2022-12-24T06:31:59.515Z,15.80
2022-12-24T06:34:28.163Z,15.77
2022-12-24T06:36:56.591Z,15.71
2022-12-24T06:39:25.807Z,15.67
2022-12-24T06:41:54.290Z,15.63
2022-12-24T06:44:24.349Z,15.58
2022-12-24T06:46:53.022Z,15.53
2022-12-24T06:49:21.460Z,15.50
2022-12-24T06:51:49.843Z,15.47
2022-12-24T06:54:18.371Z,15.44
2022-12-24T06:56:46.789Z,15.41
2022-12-24T06:59:15.158Z,15.39
2022-12-24T07:01:45.095Z,15.38
2022-12-24T07:04:19.859Z,15.39
2022-12-24T07:06:48.998Z,15.40
2022-12-24T07:09:17.395Z,15.40
2022-12-24T07:11:45.774Z,15.40
2022-12-24T07:14:14.174Z,15.40
2022-12-24T07:16:44.051Z,15.41
2022-12-24T07:19:12.595Z,15.42
2022-12-24T07:21:41.045Z,15.42
2022-12-24T07:24:09.582Z,15.43
2022-12-24T07:26:38.051Z,15.43
2022-12-24T07:29:06.461Z,15.43
2022-12-24T07:31:34.759Z,15.43
2022-12-24T07:34:04.671Z,15.43
2022-12-24T07:36:33.106Z,15.42
2022-12-24T07:39:01.509Z,15.41
2022-12-24T07:41:30.061Z,15.41
2022-12-24T07:43:58.459Z,15.39
2022-12-24T07:46:26.911Z,15.40
2022-12-24T07:48:55.345Z,15.38
2022-12-24T07:51:25.204Z,15.37
2022-12-24T07:53:53.595Z,15.37
2022-12-24T07:56:22.013Z,15.37
2022-12-24T07:58:52.778Z,15.38
2022-12-24T08:01:21.289Z,15.38
2022-12-24T08:03:51.510Z,15.42
2022-12-24T08:06:20.040Z,15.44
2022-12-24T08:08:49.865Z,15.48
2022-12-24T08:11:18.418Z,15.49
2022-12-24T08:13:46.816Z,15.50
2022-12-24T08:16:15.286Z,15.52
2022-12-24T08:18:44.139Z,15.52
2022-12-24T08:21:12.544Z,15.53
2022-12-24T08:23:40.983Z,15.53
2022-12-24T08:26:11.969Z,15.51
2022-12-24T08:28:41.665Z,15.49
2022-12-24T08:31:10.428Z,15.48
2022-12-24T08:33:38.915Z,15.48
2022-12-24T08:36:08.014Z,15.48
2022-12-24T08:38:36.509Z,15.49
2022-12-24T08:41:05.401Z,15.52
2022-12-24T08:43:35.157Z,15.55
2022-12-24T08:46:05.929Z,15.58
2022-12-24T08:48:35.262Z,15.63
2022-12-24T08:51:09.718Z,15.67
2022-12-24T08:53:38.800Z,15.75
2022-12-24T08:56:10.679Z,15.82
2022-12-24T08:58:40.828Z,15.91
2022-12-24T09:01:14.528Z,15.99
2022-12-24T09:03:43.640Z,16.12
2022-12-24T09:06:13.328Z,16.19
2022-12-24T09:08:41.906Z,16.27
2022-12-24T09:11:15.046Z,16.32
2022-12-24T09:13:45.334Z,16.37
2022-12-24T09:16:14.438Z,16.45
2022-12-24T09:18:43.127Z,16.52
2022-12-24T09:21:15.474Z,16.59
2022-12-24T09:23:48.027Z,16.66
2022-12-24T09:26:18.871Z,16.71
2022-12-24T09:28:49.918Z,16.79
2022-12-24T09:31:18.964Z,16.86
2022-12-24T09:33:49.118Z,16.93
2022-12-24T09:36:17.841Z,16.99
2022-12-24T09:38:46.883Z,17.05
2022-12-24T09:41:22.876Z,17.10
2022-12-24T09:44:01.427Z,17.13
2022-12-24T09:46:35.493Z,17.14
2022-12-24T09:49:09.877Z,17.15
2022-12-24T09:51:43.027Z,17.16
2022-12-24T09:54:20.773Z,17.16
2022-12-24T09:56:50.270Z,17.20
2022-12-24T09:59:24.256Z,17.20
2022-12-24T10:01:55.786Z,17.22
2022-12-24T10:04:30.599Z,17.21
2022-12-24T10:07:07.062Z,17.20
2022-12-24T10:09:44.323Z,17.20
2022-12-24T10:12:23.813Z,17.19
2022-12-24T10:15:09.392Z,17.21
2022-12-24T10:17:53.228Z,17.23
2022-12-24T10:20:46.768Z,17.23
2022-12-24T10:23:25.185Z,17.22
2022-12-24T10:26:06.425Z,17.19
2022-12-24T10:28:49.664Z,17.18
2022-12-24T10:31:24.412Z,17.21
2022-12-24T10:33:59.555Z,17.24
2022-12-24T10:36:31.717Z,17.36
2022-12-24T10:39:00.682Z,17.62
2022-12-24T10:41:31.049Z,17.92
2022-12-24T10:44:01.199Z,18.26
2022-12-24T10:46:37.464Z,18.56
2022-12-24T10:49:09.276Z,18.75
2022-12-24T10:51:46.564Z,18.91
2022-12-24T10:54:24.437Z,19.10
2022-12-24T10:57:00.959Z,19.22
2022-12-24T10:59:32.704Z,19.24
2022-12-24T11:02:03.618Z,19.27
2022-12-24T11:04:34.011Z,19.37
2022-12-24T11:07:05.761Z,19.43
2022-12-24T11:09:36.914Z,19.56
2022-12-24T11:12:16.760Z,19.73
2022-12-24T11:14:45.175Z,19.87
2022-12-24T11:17:23.663Z,20.04
2022-12-24T11:19:52.560Z,20.19
2022-12-24T11:22:25.654Z,20.23
2022-12-24T11:25:04.106Z,20.21
2022-12-24T11:27:44.498Z,20.20
2022-12-24T11:30:33.827Z,20.21
2022-12-24T11:33:22.979Z,20.27
2022-12-24T11:36:14.414Z,20.33
2022-12-24T11:38:42.855Z,20.34
2022-12-24T11:41:13.326Z,20.38
2022-12-24T11:43:45.575Z,20.27
2022-12-24T11:46:18.853Z,20.10
2022-12-24T11:48:50.071Z,19.85
2022-12-24T11:51:25.697Z,19.52
2022-12-24T11:54:06.090Z,19.25
2022-12-24T11:56:42.060Z,19.05
2022-12-24T11:59:20.476Z,18.83
2022-12-24T12:01:56.697Z,18.62
2022-12-24T12:04:31.272Z,18.41
2022-12-24T12:07:11.130Z,18.27
2022-12-24T12:09:47.054Z,18.11
2022-12-24T12:12:20.031Z,17.98
2022-12-24T12:14:53.381Z,17.87
2022-12-24T12:17:32.901Z,17.81
2022-12-24T12:20:12.510Z,17.80
2022-12-24T12:22:51.630Z,17.94
2022-12-24T12:25:27.772Z,18.10
2022-12-24T12:27:59.255Z,18.13
2022-12-24T12:30:28.810Z,18.07
2022-12-24T12:33:05.821Z,17.97
2022-12-24T12:35:39.808Z,17.85
2022-12-24T12:38:14.282Z,17.73
2022-12-24T12:41:13.346Z,17.58
2022-12-24T12:44:29.929Z,17.45
2022-12-24T12:47:38.670Z,17.38
2022-12-24T12:50:18.471Z,17.35
2022-12-24T12:53:05.051Z,17.29
2022-12-24T12:55:47.935Z,17.26
2022-12-24T12:58:24.527Z,17.24
2022-12-24T13:01:00.159Z,17.21
2022-12-24T13:04:20.996Z,17.13
2022-12-24T13:08:01.010Z,17.08
2022-12-24T13:11:03.017Z,17.05
2022-12-24T13:14:21.067Z,17.04
2022-12-24T13:17:28.881Z,17.06
2022-12-24T13:20:18.920Z,17.12
2022-12-24T13:22:59.486Z,17.17
2022-12-24T13:25:36.592Z,17.20
2022-12-24T13:28:34.252Z,17.17
2022-12-24T13:31:31.796Z,17.15
2022-12-24T13:34:05.188Z,17.16
2022-12-24T13:37:07.110Z,17.09
2022-12-24T13:40:04.188Z,17.07
2022-12-24T13:43:12.330Z,17.04
2022-12-24T13:45:51.403Z,17.02
2022-12-24T13:48:34.385Z,16.96
2022-12-24T13:51:26.623Z,16.90
2022-12-24T13:54:00.156Z,16.83
2022-12-24T13:56:31.706Z,16.77
2022-12-24T13:59:22.818Z,16.69
2022-12-24T14:01:53.174Z,16.65
2022-12-24T14:04:28.110Z,16.60
2022-12-24T14:07:00.968Z,16.56
2022-12-24T14:09:32.163Z,16.53
2022-12-24T14:12:48.461Z,16.45
2022-12-24T14:16:04.653Z,16.38
2022-12-24T14:18:40.775Z,16.36
2022-12-24T14:21:17.796Z,16.36
2022-12-24T14:23:54.797Z,16.32
2022-12-24T14:26:26.452Z,16.31
2022-12-24T14:28:59.011Z,16.28
2022-12-24T14:31:27.615Z,16.24
2022-12-24T14:34:13.094Z,16.19
2022-12-24T14:36:44.016Z,16.15
2022-12-24T14:39:24.901Z,16.08
2022-12-24T14:42:09.239Z,16.04
2022-12-24T14:44:47.451Z,15.99
2022-12-24T14:47:32.679Z,15.95
2022-12-24T14:50:43.921Z,15.87
2022-12-24T14:53:28.729Z,15.82
2022-12-24T14:55:57.172Z,15.77
2022-12-24T14:58:31.186Z,15.71
2022-12-24T15:01:02.507Z,15.67
2022-12-24T15:03:33.320Z,15.62
2022-12-24T15:06:07.428Z,15.58
2022-12-24T15:08:42.311Z,15.54
2022-12-24T15:11:17.283Z,15.50
2022-12-24T15:13:49.320Z,15.45
2022-12-24T15:16:25.697Z,15.41
2022-12-24T15:18:58.144Z,15.40
2022-12-24T15:21:33.004Z,15.37
2022-12-24T15:24:01.971Z,15.35
2022-12-24T15:26:32.616Z,15.33
2022-12-24T15:29:03.530Z,15.31
2022-12-24T15:31:33.057Z,15.28
2022-12-24T15:34:01.957Z,15.26
2022-12-24T15:36:34.800Z,15.23
2022-12-24T15:39:06.991Z,15.21
2022-12-24T15:42:01.288Z,15.19
2022-12-24T15:44:34.775Z,15.16
2022-12-24T15:47:06.700Z,15.16
2022-12-24T15:49:36.803Z,15.15
2022-12-24T15:52:10.751Z,15.13
2022-12-24T15:54:44.280Z,15.12
2022-12-24T15:57:24.375Z,15.09
2022-12-24T15:59:55.644Z,15.09
2022-12-24T16:02:40.241Z,15.07
2022-12-24T16:05:35.811Z,15.05
2022-12-24T16:08:23.554Z,15.07
2022-12-24T16:11:07.427Z,15.08
2022-12-24T16:13:39.163Z,15.07
2022-12-24T16:16:11.582Z,15.08
2022-12-24T16:18:44.117Z,15.09
2022-12-24T16:21:24.727Z,15.07
2022-12-24T16:23:57.451Z,15.09
2022-12-24T16:26:26.124Z,15.10
2022-12-24T16:28:56.376Z,15.09
2022-12-24T16:31:33.177Z,15.08
2022-12-24T16:34:03.063Z,15.09
2022-12-24T16:36:33.297Z,15.09
2022-12-24T16:39:20.481Z,15.08
2022-12-24T16:42:06.052Z,15.05
2022-12-24T16:44:34.464Z,15.04
2022-12-24T16:47:03.045Z,15.05
2022-12-24T16:49:31.628Z,15.05
2022-12-24T16:52:00.115Z,15.05
2022-12-24T16:54:30.169Z,15.02
2022-12-24T16:56:58.640Z,15.03
2022-12-24T16:59:27.126Z,15.05
2022-12-24T17:01:55.690Z,15.04
2022-12-24T17:04:24.247Z,15.03
2022-12-24T17:06:52.771Z,15.01
2022-12-24T17:09:21.259Z,15.00
2022-12-24T17:11:51.107Z,14.98
2022-12-24T17:14:20.784Z,14.98
2022-12-24T17:16:49.804Z,14.96
2022-12-24T17:19:18.581Z,14.96
2022-12-24T17:21:47.253Z,14.95
2022-12-24T17:24:15.807Z,14.94
2022-12-24T17:26:44.520Z,14.94
2022-12-24T17:29:14.391Z,14.92
2022-12-24T17:31:43.465Z,14.94
2022-12-24T17:34:12.112Z,14.99
2022-12-24T17:36:40.977Z,15.04
2022-12-24T17:39:09.951Z,15.10
2022-12-24T17:41:38.412Z,15.17
2022-12-24T17:44:09.062Z,15.22
2022-12-24T17:46:39.013Z,15.28
2022-12-24T17:49:07.718Z,15.35
2022-12-24T17:51:40.265Z,15.40
2022-12-24T17:54:13.413Z,15.46
2022-12-24T17:56:42.045Z,15.49
2022-12-24T17:59:10.958Z,15.54
2022-12-24T18:01:40.962Z,15.56
2022-12-24T18:04:09.657Z,15.61
2022-12-24T18:06:47.244Z,15.64
2022-12-24T18:09:17.657Z,15.70
2022-12-24T18:11:46.145Z,15.76
2022-12-24T18:14:15.427Z,15.84
2022-12-24T18:16:46.207Z,15.91
2022-12-24T18:19:14.762Z,15.96
2022-12-24T18:21:43.260Z,16.03
2022-12-24T18:24:13.335Z,16.08
2022-12-24T18:26:41.921Z,16.16
2022-12-24T18:29:11.219Z,16.20
2022-12-24T18:31:40.213Z,16.25
2022-12-24T18:34:13.900Z,16.28
2022-12-24T18:36:42.639Z,16.34
2022-12-24T18:39:11.059Z,16.36
2022-12-24T18:41:39.498Z,16.39
2022-12-24T18:44:07.939Z,16.42
2022-12-24T18:46:36.351Z,16.43
2022-12-24T18:49:04.855Z,16.47
2022-12-24T18:51:36.312Z,16.48
2022-12-24T18:54:05.822Z,16.50
2022-12-24T18:56:34.689Z,16.51
2022-12-24T18:59:04.752Z,16.51
2022-12-24T19:01:35.475Z,16.52
2022-12-24T19:04:04.578Z,16.52
2022-12-24T19:06:34.476Z,16.52
2022-12-24T19:09:03.281Z,16.52
2022-12-24T19:11:34.216Z,16.52
2022-12-24T19:14:04.032Z,16.53
2022-12-24T19:16:36.076Z,16.51
2022-12-24T19:19:06.090Z,16.52
2022-12-24T19:21:36.078Z,16.53
2022-12-24T19:24:05.028Z,16.53
2022-12-24T19:26:33.747Z,16.54
2022-12-24T19:29:02.180Z,16.54
2022-12-24T19:31:32.270Z,16.53
2022-12-24T19:34:00.868Z,16.53
2022-12-24T19:36:32.104Z,16.53
2022-12-24T19:39:01.881Z,16.53
2022-12-24T19:41:32.585Z,16.52
2022-12-24T19:44:03.055Z,16.53
2022-12-24T19:46:36.262Z,16.52
2022-12-24T19:49:07.610Z,16.53
2022-12-24T19:51:36.693Z,16.52
2022-12-24T19:54:13.381Z,16.52
2022-12-24T19:56:45.337Z,16.52
2022-12-24T19:59:13.794Z,16.50
2022-12-24T20:01:42.427Z,16.50
2022-12-24T20:04:11.454Z,16.52
2022-12-24T20:06:39.901Z,16.52
2022-12-24T20:09:10.117Z,16.52
2022-12-24T20:11:38.732Z,16.54
2022-12-24T20:14:09.277Z,16.53
2022-12-24T20:16:37.819Z,16.54
2022-12-24T20:19:08.220Z,16.55
2022-12-24T20:21:38.066Z,16.55
2022-12-24T20:24:07.748Z,16.56
2022-12-24T20:26:37.935Z,16.56
2022-12-24T20:29:08.571Z,16.56
2022-12-24T20:31:38.377Z,16.58
2022-12-24T20:34:08.566Z,16.57
2022-12-24T20:36:38.371Z,16.58
2022-12-24T20:39:07.994Z,16.58
2022-12-24T20:41:38.200Z,16.58
2022-12-24T20:44:07.074Z,16.58
2022-12-24T20:46:35.734Z,16.59
2022-12-24T20:49:05.332Z,16.58
2022-12-24T20:51:34.122Z,16.58
2022-12-24T20:54:03.043Z,16.57
2022-12-24T20:56:32.240Z,16.57
2022-12-24T20:59:02.812Z,16.57
2022-12-24T21:01:31.582Z,16.56
2022-12-24T21:04:04.826Z,16.56
2022-12-24T21:06:34.611Z,16.57
2022-12-24T21:09:08.380Z,16.56
2022-12-24T21:11:54.305Z,16.56
2022-12-24T21:14:27.672Z,16.54
2022-12-24T21:16:56.846Z,16.56
2022-12-24T21:19:26.735Z,16.57
2022-12-24T21:21:56.434Z,16.58
2022-12-24T21:24:25.690Z,16.58
2022-12-24T21:26:54.095Z,16.58
2022-12-24T21:29:23.928Z,16.57
2022-12-24T21:31:52.394Z,16.58
2022-12-24T21:34:21.074Z,16.58
2022-12-24T21:36:49.551Z,16.58
2022-12-24T21:39:18.062Z,16.58
2022-12-24T21:41:46.525Z,16.57
2022-12-24T21:44:14.969Z,16.57
2022-12-24T21:46:44.963Z,16.56
2022-12-24T21:49:30.794Z,16.57
2022-12-24T21:52:00.724Z,16.56
2022-12-24T21:54:30.547Z,16.56
2022-12-24T21:57:19.764Z,16.55
2022-12-24T21:59:50.552Z,16.56
2022-12-24T22:02:26.661Z,16.57
2022-12-24T22:04:55.743Z,16.57
2022-12-24T22:07:44.829Z,16.56
2022-12-24T22:10:32.844Z,16.51
2022-12-24T22:13:06.270Z,16.46
2022-12-24T22:15:35.576Z,16.41
2022-12-24T22:18:07.995Z,16.36
2022-12-24T22:20:36.604Z,16.30
2022-12-24T22:23:05.432Z,16.24
2022-12-24T22:25:34.334Z,16.19
2022-12-24T22:28:03.309Z,16.14
2022-12-24T22:30:32.280Z,16.09
2022-12-24T22:33:00.822Z,16.07
2022-12-24T22:35:30.826Z,16.03
2022-12-24T22:38:00.303Z,16.03
2022-12-24T22:40:29.311Z,16.01
2022-12-24T22:42:57.941Z,16.01
2022-12-24T22:45:26.415Z,16.01
2022-12-24T22:47:54.897Z,16.02
2022-12-24T22:50:23.620Z,16.04
2022-12-24T22:52:53.989Z,16.05
2022-12-24T22:55:22.524Z,16.06
2022-12-24T22:57:51.142Z,16.06
2022-12-24T23:00:40.928Z,16.04
2022-12-24T23:03:11.053Z,16.07
2022-12-24T23:05:40.313Z,16.08
2022-12-24T23:08:11.363Z,16.08
2022-12-24T23:10:41.294Z,16.09
2022-12-24T23:13:27.053Z,16.12
2022-12-24T23:15:55.552Z,16.12
2022-12-24T23:18:24.105Z,16.13
2022-12-24T23:20:52.569Z,16.14
2022-12-24T23:23:22.504Z,16.14
2022-12-24T23:25:50.992Z,16.15
2022-12-24T23:28:19.420Z,16.16
2022-12-24T23:30:58.385Z,16.15
2022-12-24T23:33:26.989Z,16.18
2022-12-24T23:35:55.640Z,16.19
2022-12-24T23:38:25.491Z,16.21
2022-12-24T23:40:57.034Z,16.23
2022-12-24T23:43:25.737Z,16.25
2022-12-24T23:45:55.370Z,16.25
2022-12-24T23:48:25.316Z,16.26
2022-12-24T23:51:03.482Z,16.27
2022-12-24T23:53:33.445Z,16.28
2022-12-24T23:56:02.835Z,16.29
2022-12-24T23:58:31.505Z,16.31
